createdAt,value
2023-01-19T00:01:15.520Z,14.80
2023-01-19T00:03:44.205Z,14.80
2023-01-19T00:06:12.912Z,14.80
2023-01-19T00:08:41.553Z,14.90
2023-01-19T00:11:10.171Z,14.80
2023-01-19T00:13:40.614Z,14.80
2023-01-19T00:16:09.599Z,14.90
2023-01-19T00:18:38.242Z,14.90
2023-01-19T00:21:07.171Z,14.90
2023-01-19T00:23:35.751Z,14.90
2023-01-19T00:26:04.462Z,14.90
2023-01-19T00:28:33.030Z,15.00
2023-01-19T00:31:03.141Z,15.00
2023-01-19T00:33:31.864Z,15.00
2023-01-19T00:36:00.507Z,15.00
2023-01-19T00:38:29.124Z,15.10
2023-01-19T00:40:57.842Z,15.10
2023-01-19T00:43:25.429Z,15.20
2023-01-19T00:45:54.116Z,15.20
2023-01-19T00:48:24.135Z,15.30
2023-01-19T00:50:52.771Z,15.40
2023-01-19T00:53:21.375Z,15.30
2023-01-19T00:55:50.071Z,15.30
2023-01-19T00:58:18.727Z,15.30
2023-01-19T01:00:47.365Z,15.20
2023-01-19T01:03:16.132Z,15.10
2023-01-19T01:05:46.102Z,15.10
2023-01-19T01:08:14.633Z,15.00
2023-01-19T01:10:43.282Z,14.90
2023-01-19T01:13:20.898Z,14.80
2023-01-19T01:15:52.260Z,14.70
2023-01-19T01:18:21.527Z,14.70
2023-01-19T01:20:51.548Z,14.80
2023-01-19T01:23:23.058Z,14.80
2023-01-19T01:25:51.859Z,14.80
2023-01-19T01:28:20.441Z,14.80
2023-01-19T01:30:49.360Z,14.90
2023-01-19T01:33:41.128Z,14.90
2023-01-19T01:36:09.225Z,14.80
2023-01-19T01:38:38.757Z,14.90
2023-01-19T01:41:07.351Z,14.90
2023-01-19T01:43:47.287Z,14.90
2023-01-19T01:46:18.125Z,15.00
2023-01-19T01:48:52.281Z,15.00
2023-01-19T01:51:27.629Z,14.90
2023-01-19T01:54:14.924Z,15.00
2023-01-19T01:56:46.395Z,15.00
2023-01-19T01:59:26.183Z,15.00
2023-01-19T02:02:15.594Z,15.10
2023-01-19T02:04:48.872Z,15.20
2023-01-19T02:07:42.167Z,15.20
2023-01-19T02:10:29.062Z,15.30
2023-01-19T02:13:17.076Z,15.30
2023-01-19T02:15:46.064Z,15.40
2023-01-19T02:18:14.679Z,15.50
2023-01-19T02:20:49.048Z,15.50
2023-01-19T02:23:26.096Z,15.60
2023-01-19T02:25:56.317Z,15.50
2023-01-19T02:28:26.117Z,15.50
2023-01-19T02:30:54.819Z,15.50
2023-01-19T02:33:23.591Z,15.50
2023-01-19T02:35:53.500Z,15.60
2023-01-19T02:38:22.602Z,15.60
2023-01-19T02:40:51.868Z,15.60
2023-01-19T02:43:23.068Z,15.70
2023-01-19T02:45:52.635Z,15.80
2023-01-19T02:48:22.479Z,15.80
2023-01-19T02:50:53.761Z,15.80
2023-01-19T02:53:49.738Z,15.80
2023-01-19T02:56:37.439Z,15.80
2023-01-19T02:59:15.716Z,15.80
2023-01-19T03:02:16.828Z,15.80
2023-01-19T03:04:59.613Z,15.80
2023-01-19T03:07:39.502Z,15.80
2023-01-19T03:10:13.899Z,15.80
2023-01-19T03:12:47.551Z,15.80
2023-01-19T03:15:23.665Z,15.90
2023-01-19T03:17:54.481Z,15.90
2023-01-19T03:20:29.029Z,15.90
2023-01-19T03:23:03.285Z,15.90
2023-01-19T03:25:36.023Z,15.80
2023-01-19T03:28:06.411Z,15.80
2023-01-19T03:30:41.756Z,15.80
2023-01-19T03:33:14.717Z,15.90
2023-01-19T03:35:47.813Z,15.90
2023-01-19T03:38:20.038Z,15.90
2023-01-19T03:40:49.758Z,15.90
2023-01-19T03:43:19.893Z,15.90
2023-01-19T03:45:50.491Z,15.90
2023-01-19T03:48:19.333Z,16.00
2023-01-19T03:50:47.914Z,16.00
2023-01-19T03:53:18.304Z,16.10
2023-01-19T03:55:49.679Z,16.20
2023-01-19T03:58:19.241Z,16.10
2023-01-19T04:00:49.534Z,16.20
2023-01-19T04:03:19.864Z,16.20
2023-01-19T04:05:48.722Z,16.20
2023-01-19T04:08:17.305Z,16.20
2023-01-19T04:10:45.918Z,16.10
2023-01-19T04:13:15.584Z,16.20
2023-01-19T04:15:44.232Z,16.10
2023-01-19T04:18:14.269Z,16.10
2023-01-19T04:20:42.887Z,16.10
2023-01-19T04:23:13.042Z,16.00
2023-01-19T04:25:41.681Z,16.00
2023-01-19T04:28:10.287Z,16.00
2023-01-19T04:30:38.942Z,16.00
2023-01-19T04:33:07.530Z,16.00
2023-01-19T04:35:37.505Z,15.90
2023-01-19T04:38:06.981Z,15.90
2023-01-19T04:40:35.546Z,15.90
2023-01-19T04:43:04.424Z,15.90
2023-01-19T04:45:33.218Z,15.80
2023-01-19T04:48:02.015Z,15.80
2023-01-19T04:50:30.582Z,15.80
2023-01-19T04:53:01.087Z,15.90
2023-01-19T04:55:30.045Z,15.90
2023-01-19T04:57:58.651Z,15.90
2023-01-19T05:00:27.710Z,15.90
2023-01-19T05:02:56.530Z,15.90
2023-01-19T05:05:25.332Z,15.90
2023-01-19T05:07:53.986Z,15.80
2023-01-19T05:10:24.124Z,15.80
2023-01-19T05:12:53.637Z,15.70
2023-01-19T05:15:22.285Z,15.60
2023-01-19T05:17:51.090Z,15.60
2023-01-19T05:20:19.966Z,15.60
2023-01-19T05:22:51.943Z,15.50
2023-01-19T05:25:21.031Z,15.50
2023-01-19T05:27:51.110Z,15.50
2023-01-19T05:30:20.158Z,15.60
2023-01-19T05:32:48.788Z,15.60
2023-01-19T05:35:20.108Z,15.60
2023-01-19T05:37:54.548Z,15.70
2023-01-19T05:40:23.168Z,15.70
2023-01-19T05:42:53.488Z,15.70
2023-01-19T05:45:22.107Z,15.80
2023-01-19T05:47:51.133Z,15.80
2023-01-19T05:50:20.331Z,15.80
2023-01-19T05:52:48.918Z,15.80
2023-01-19T05:55:17.814Z,15.90
2023-01-19T05:57:46.517Z,15.90
2023-01-19T06:00:17.607Z,15.80
2023-01-19T06:02:49.450Z,15.80
2023-01-19T06:05:18.406Z,15.80
2023-01-19T06:07:47.100Z,15.70
2023-01-19T06:10:15.792Z,15.70
2023-01-19T06:12:44.495Z,15.70
2023-01-19T06:15:14.671Z,15.60
2023-01-19T06:17:44.725Z,15.70
2023-01-19T06:20:15.274Z,15.70
2023-01-19T06:22:44.038Z,15.60
2023-01-19T06:25:13.214Z,15.60
2023-01-19T06:27:45.715Z,15.60
2023-01-19T06:30:15.098Z,15.70
2023-01-19T06:32:45.121Z,15.80
2023-01-19T06:35:15.076Z,15.80
2023-01-19T06:37:43.656Z,15.80
2023-01-19T06:40:14.506Z,15.80
2023-01-19T06:42:43.468Z,15.80
2023-01-19T06:45:12.505Z,15.70
2023-01-19T06:47:41.232Z,15.90
2023-01-19T06:50:12.428Z,15.80
2023-01-19T06:52:42.868Z,15.90
2023-01-19T06:55:12.310Z,15.80
2023-01-19T06:57:41.096Z,15.90
2023-01-19T07:00:11.833Z,15.80
2023-01-19T07:02:43.824Z,15.90
2023-01-19T07:05:14.602Z,15.90
2023-01-19T07:07:46.166Z,15.90
2023-01-19T07:10:16.627Z,15.90
2023-01-19T07:12:46.609Z,15.80
2023-01-19T07:15:16.038Z,15.80
2023-01-19T07:17:45.061Z,15.80
2023-01-19T07:20:15.658Z,15.90
2023-01-19T07:22:45.913Z,15.90
2023-01-19T07:25:15.131Z,15.90
2023-01-19T07:27:45.113Z,15.90
2023-01-19T07:30:17.160Z,16.00
2023-01-19T07:32:45.840Z,16.00
2023-01-19T07:35:15.994Z,16.10
2023-01-19T07:37:44.708Z,16.10
2023-01-19T07:40:13.968Z,16.10
2023-01-19T07:42:48.769Z,16.20
2023-01-19T07:45:17.699Z,16.30
2023-01-19T07:47:46.343Z,16.30
2023-01-19T07:50:18.289Z,16.30
2023-01-19T07:52:47.005Z,16.30
2023-01-19T07:55:15.582Z,16.30
2023-01-19T07:57:44.251Z,16.40
2023-01-19T08:00:14.714Z,16.30
2023-01-19T08:02:44.176Z,16.30
2023-01-19T08:05:13.584Z,16.30
2023-01-19T08:07:45.210Z,16.30
2023-01-19T08:10:14.761Z,16.30
2023-01-19T08:12:43.484Z,16.30
2023-01-19T08:15:12.708Z,16.20
2023-01-19T08:17:41.311Z,16.20
2023-01-19T08:20:11.321Z,16.20
2023-01-19T08:22:39.923Z,16.20
2023-01-19T08:25:10.901Z,16.20
2023-01-19T08:27:39.516Z,16.20
2023-01-19T08:30:09.171Z,16.20
2023-01-19T08:32:37.839Z,16.10
2023-01-19T08:35:07.663Z,16.10
2023-01-19T08:37:36.284Z,16.10
2023-01-19T08:40:05.402Z,16.10
2023-01-19T08:42:35.462Z,16.10
2023-01-19T08:45:04.163Z,16.10
2023-01-19T08:47:32.795Z,16.20
2023-01-19T08:50:01.483Z,16.20
2023-01-19T08:52:30.813Z,16.10
2023-01-19T08:54:59.411Z,16.20
2023-01-19T08:57:29.350Z,16.30
2023-01-19T08:59:59.411Z,16.30
2023-01-19T09:02:28.037Z,16.40
2023-01-19T09:04:56.747Z,16.40
2023-01-19T09:07:25.944Z,16.30
2023-01-19T09:09:54.628Z,16.30
2023-01-19T09:12:23.222Z,16.20
2023-01-19T09:14:52.007Z,16.20
2023-01-19T09:17:22.174Z,16.20
2023-01-19T09:19:51.040Z,16.20
2023-01-19T09:22:19.649Z,16.10
2023-01-19T09:24:48.282Z,16.10
2023-01-19T09:27:16.902Z,16.10
2023-01-19T09:29:52.507Z,16.10
2023-01-19T09:32:23.203Z,16.10
2023-01-19T09:34:52.590Z,15.90
2023-01-19T09:37:21.289Z,15.80
2023-01-19T09:39:49.901Z,15.60
2023-01-19T09:42:25.536Z,15.50
2023-01-19T09:44:55.729Z,15.40
2023-01-19T09:47:29.774Z,15.40
2023-01-19T09:50:03.725Z,15.30
2023-01-19T09:52:36.503Z,15.20
2023-01-19T09:55:06.848Z,14.70
2023-01-19T09:57:36.367Z,14.40
2023-01-19T10:00:14.901Z,13.80
2023-01-19T10:02:49.840Z,12.90
2023-01-19T10:05:28.863Z,12.30
2023-01-19T10:08:10.534Z,12.00
2023-01-19T10:10:43.207Z,11.90
2023-01-19T10:13:29.040Z,11.80
2023-01-19T10:16:10.966Z,11.80
2023-01-19T10:18:47.906Z,11.90
2023-01-19T10:21:20.549Z,11.80
2023-01-19T10:23:53.519Z,11.90
2023-01-19T10:26:25.700Z,12.00
2023-01-19T10:28:59.188Z,12.00
2023-01-19T10:31:28.005Z,12.20
2023-01-19T10:33:58.564Z,12.20
2023-01-19T10:36:31.453Z,12.00
2023-01-19T10:39:00.177Z,12.00
2023-01-19T10:41:36.641Z,12.10
2023-01-19T10:44:07.281Z,12.20
2023-01-19T10:46:43.626Z,12.10
2023-01-19T10:49:26.889Z,12.10
2023-01-19T10:51:56.557Z,12.00
2023-01-19T10:54:27.265Z,12.00
2023-01-19T10:56:59.187Z,11.90
2023-01-19T10:59:36.829Z,12.00
2023-01-19T11:02:19.771Z,12.10
2023-01-19T11:04:53.197Z,12.20
2023-01-19T11:07:24.006Z,12.30
2023-01-19T11:10:21.395Z,12.40
2023-01-19T11:13:01.525Z,12.40
2023-01-19T11:15:34.918Z,12.50
2023-01-19T11:18:06.124Z,12.50
2023-01-19T11:20:49.366Z,12.60
2023-01-19T11:23:26.309Z,12.80
2023-01-19T11:25:57.538Z,13.00
2023-01-19T11:28:30.944Z,13.10
2023-01-19T11:31:02.383Z,13.30
2023-01-19T11:33:37.503Z,13.50
2023-01-19T11:36:16.723Z,13.60
2023-01-19T11:38:46.890Z,13.70
2023-01-19T11:41:19.985Z,13.80
2023-01-19T11:43:51.482Z,13.90
2023-01-19T11:46:21.093Z,14.00
2023-01-19T11:48:58.231Z,14.20
2023-01-19T11:51:32.035Z,14.30
2023-01-19T11:54:04.101Z,14.20
2023-01-19T11:56:33.799Z,14.20
2023-01-19T11:59:05.178Z,14.30
2023-01-19T12:01:38.756Z,14.30
2023-01-19T12:04:13.292Z,14.40
2023-01-19T12:06:47.902Z,14.50
2023-01-19T12:09:20.953Z,14.70
2023-01-19T12:11:54.989Z,14.70
2023-01-19T12:14:27.232Z,14.90
2023-01-19T12:17:01.664Z,15.10
2023-01-19T12:19:42.128Z,15.40
2023-01-19T12:22:17.093Z,15.40
2023-01-19T12:24:50.830Z,15.40
2023-01-19T12:27:28.392Z,15.60
2023-01-19T12:29:58.044Z,15.60
2023-01-19T12:32:34.997Z,15.60
2023-01-19T12:35:03.800Z,15.70
2023-01-19T12:37:44.822Z,15.80
2023-01-19T12:40:27.324Z,15.90
2023-01-19T12:43:03.995Z,15.80
2023-01-19T12:45:34.803Z,15.70
2023-01-19T12:48:05.024Z,15.70
2023-01-19T12:50:38.052Z,15.60
2023-01-19T12:53:19.912Z,15.70
2023-01-19T12:56:00.197Z,15.70
2023-01-19T12:58:29.318Z,15.70
2023-01-19T13:01:16.744Z,15.50
2023-01-19T13:03:59.803Z,15.40
2023-01-19T13:07:06.267Z,15.30
2023-01-19T13:09:37.499Z,15.30
2023-01-19T13:12:23.340Z,15.20
2023-01-19T13:14:52.164Z,15.20
2023-01-19T13:17:34.487Z,15.10
2023-01-19T13:20:25.030Z,15.10
2023-01-19T13:23:17.507Z,15.00
2023-01-19T13:25:54.113Z,15.20
2023-01-19T13:28:31.826Z,15.20
2023-01-19T13:31:02.892Z,15.00
2023-01-19T13:33:41.185Z,15.00
2023-01-19T13:36:27.023Z,15.00
2023-01-19T13:38:58.175Z,15.00
2023-01-19T13:41:31.831Z,14.90
2023-01-19T13:44:06.738Z,14.90
2023-01-19T13:46:38.731Z,14.90
2023-01-19T13:49:16.924Z,14.70
2023-01-19T13:51:45.687Z,14.40
2023-01-19T13:54:17.872Z,14.40
2023-01-19T13:56:51.308Z,14.30
2023-01-19T13:59:20.519Z,14.30
2023-01-19T14:01:51.197Z,14.10
2023-01-19T14:04:29.614Z,14.00
2023-01-19T14:07:02.053Z,14.10
2023-01-19T14:09:30.980Z,14.00
2023-01-19T14:12:25.910Z,14.00
2023-01-19T14:14:54.833Z,13.90
2023-01-19T14:17:25.914Z,13.90
2023-01-19T14:19:56.519Z,13.80
2023-01-19T14:22:39.889Z,13.80
2023-01-19T14:25:30.389Z,13.70
2023-01-19T14:28:29.895Z,13.80
2023-01-19T14:31:00.440Z,13.80
2023-01-19T14:33:36.809Z,13.70
2023-01-19T14:36:33.415Z,13.80
2023-01-19T14:39:03.231Z,13.80
2023-01-19T14:41:39.159Z,13.90
2023-01-19T14:44:13.322Z,13.90
2023-01-19T14:46:48.484Z,13.90
2023-01-19T14:49:23.079Z,13.90
2023-01-19T14:51:52.283Z,14.00
2023-01-19T14:54:28.942Z,14.00
2023-01-19T14:56:57.669Z,14.00
2023-01-19T14:59:28.009Z,14.00
2023-01-19T15:01:56.869Z,14.10
2023-01-19T15:04:26.228Z,14.10
2023-01-19T15:06:56.221Z,14.30
2023-01-19T15:09:25.560Z,14.10
2023-01-19T15:11:55.032Z,14.00
2023-01-19T15:14:23.871Z,14.00
2023-01-19T15:16:53.987Z,13.90
2023-01-19T15:19:22.560Z,13.80
2023-01-19T15:21:51.155Z,13.80
2023-01-19T15:24:19.892Z,13.80
2023-01-19T15:26:48.702Z,13.70
2023-01-19T15:29:26.510Z,13.70
2023-01-19T15:31:56.677Z,13.70
2023-01-19T15:34:25.346Z,13.60
2023-01-19T15:36:54.033Z,13.70
2023-01-19T15:39:22.635Z,13.60
2023-01-19T15:41:51.319Z,13.60
2023-01-19T15:44:20.461Z,13.60
2023-01-19T15:46:49.173Z,13.70
2023-01-19T15:49:19.255Z,13.60
2023-01-19T15:51:47.973Z,13.70
2023-01-19T15:54:18.295Z,13.60
2023-01-19T15:56:47.288Z,13.60
2023-01-19T15:59:15.913Z,13.70
2023-01-19T16:01:44.824Z,13.70
2023-01-19T16:04:13.522Z,13.80
2023-01-19T16:06:43.702Z,13.80
2023-01-19T16:09:18.845Z,13.80
2023-01-19T16:11:47.878Z,13.70
2023-01-19T16:14:17.644Z,13.80
2023-01-19T16:16:46.569Z,13.80
2023-01-19T16:19:16.732Z,13.70
2023-01-19T16:21:46.856Z,13.60
2023-01-19T16:24:15.414Z,13.70
2023-01-19T16:26:46.287Z,13.70
2023-01-19T16:29:15.349Z,13.70
2023-01-19T16:31:45.745Z,13.70
2023-01-19T16:34:14.649Z,13.60
2023-01-19T16:36:44.088Z,13.60
2023-01-19T16:39:15.587Z,13.60
2023-01-19T16:41:45.811Z,13.60
2023-01-19T16:44:15.662Z,13.60
2023-01-19T16:46:46.154Z,13.60
2023-01-19T16:49:16.772Z,13.60
2023-01-19T16:51:45.907Z,13.60
2023-01-19T16:54:16.897Z,13.60
2023-01-19T16:56:45.705Z,13.50
2023-01-19T16:59:16.342Z,13.40
2023-01-19T17:01:46.678Z,13.40
2023-01-19T17:04:15.875Z,13.30
2023-01-19T17:06:44.648Z,13.30
2023-01-19T17:09:13.359Z,13.30
2023-01-19T17:11:43.793Z,13.30
2023-01-19T17:14:14.886Z,13.20
2023-01-19T17:16:44.369Z,13.20
2023-01-19T17:19:16.640Z,13.20
2023-01-19T17:21:46.830Z,13.10
2023-01-19T17:24:15.559Z,13.10
2023-01-19T17:26:48.812Z,13.00
2023-01-19T17:29:18.314Z,13.00
2023-01-19T17:31:47.198Z,12.80
2023-01-19T17:34:15.899Z,12.60
2023-01-19T17:36:44.945Z,12.40
2023-01-19T17:39:15.120Z,12.40
2023-01-19T17:41:45.363Z,12.40
2023-01-19T17:44:14.003Z,12.30
2023-01-19T17:46:42.654Z,12.30
2023-01-19T17:49:12.652Z,12.40
2023-01-19T17:51:41.337Z,12.60
2023-01-19T17:54:10.893Z,12.60
2023-01-19T17:56:41.463Z,12.70
2023-01-19T17:59:11.604Z,12.70
2023-01-19T18:01:40.844Z,12.70
2023-01-19T18:04:10.240Z,12.80
2023-01-19T18:06:39.188Z,12.80
2023-01-19T18:09:08.201Z,12.80
2023-01-19T18:11:37.373Z,12.90
2023-01-19T18:14:06.865Z,13.00
2023-01-19T18:16:37.218Z,13.00
2023-01-19T18:19:05.884Z,13.00
2023-01-19T18:21:34.450Z,13.00
2023-01-19T18:24:05.660Z,12.90
2023-01-19T18:26:35.851Z,12.90
2023-01-19T18:29:04.545Z,12.70
2023-01-19T18:31:33.191Z,12.70
2023-01-19T18:34:03.408Z,12.70
2023-01-19T18:36:47.288Z,12.60
2023-01-19T18:39:15.958Z,12.50
2023-01-19T18:41:44.609Z,12.50
2023-01-19T18:44:14.196Z,12.50
2023-01-19T18:46:43.054Z,12.40
2023-01-19T18:49:13.197Z,12.40
2023-01-19T18:51:42.129Z,12.30
2023-01-19T18:54:12.655Z,12.20
2023-01-19T18:56:41.337Z,12.10
2023-01-19T18:59:10.896Z,12.00
2023-01-19T19:01:39.668Z,11.90
2023-01-19T19:04:08.673Z,11.80
2023-01-19T19:06:38.718Z,11.70
2023-01-19T19:09:07.520Z,11.50
2023-01-19T19:11:36.604Z,11.40
2023-01-19T19:14:05.439Z,11.10
2023-01-19T19:16:36.179Z,11.10
2023-01-19T19:19:06.142Z,11.00
2023-01-19T19:21:34.781Z,10.90
2023-01-19T19:24:06.764Z,10.80
2023-01-19T19:26:35.663Z,10.90
2023-01-19T19:29:04.745Z,11.00
2023-01-19T19:31:33.767Z,11.00
2023-01-19T19:34:02.542Z,11.00
2023-01-19T19:36:33.565Z,11.10
2023-01-19T19:39:02.325Z,11.10
2023-01-19T19:41:32.778Z,11.10
2023-01-19T19:44:01.798Z,11.00
2023-01-19T19:46:30.574Z,10.90
2023-01-19T19:48:59.349Z,10.80
2023-01-19T19:51:29.418Z,10.60
2023-01-19T19:54:00.045Z,10.60
2023-01-19T19:56:30.248Z,10.50
2023-01-19T19:59:02.956Z,10.50
2023-01-19T20:01:33.918Z,10.40
2023-01-19T20:04:08.524Z,10.30
2023-01-19T20:06:39.949Z,10.30
2023-01-19T20:09:12.865Z,10.30
2023-01-19T20:11:42.315Z,10.30
2023-01-19T20:14:14.095Z,10.20
2023-01-19T20:16:43.169Z,10.10
2023-01-19T20:19:11.812Z,10.10
2023-01-19T20:21:42.951Z,10.10
2023-01-19T20:24:14.745Z,10.10
2023-01-19T20:26:47.225Z,10.10
2023-01-19T20:29:18.057Z,10.10
2023-01-19T20:31:48.883Z,10.10
2023-01-19T20:34:19.806Z,10.20
2023-01-19T20:36:50.386Z,10.30
2023-01-19T20:39:21.771Z,10.30
2023-01-19T20:41:51.464Z,10.40
2023-01-19T20:44:26.884Z,10.40
2023-01-19T20:46:56.893Z,10.30
2023-01-19T20:49:26.793Z,10.30
2023-01-19T20:51:55.682Z,10.20
2023-01-19T20:54:28.026Z,10.00
2023-01-19T20:56:57.573Z,10.00
2023-01-19T20:59:28.128Z,9.90
2023-01-19T21:01:57.009Z,9.80
2023-01-19T21:04:26.276Z,9.70
2023-01-19T21:06:55.918Z,9.70
2023-01-19T21:09:24.837Z,9.60
2023-01-19T21:11:56.550Z,9.50
2023-01-19T21:14:28.247Z,9.40
2023-01-19T21:16:58.898Z,9.40
2023-01-19T21:19:29.007Z,9.30
2023-01-19T21:21:58.742Z,9.30
2023-01-19T21:24:29.535Z,9.30
2023-01-19T21:26:59.486Z,9.20
2023-01-19T21:29:31.201Z,9.20
2023-01-19T21:32:01.292Z,9.20
2023-01-19T21:34:30.776Z,9.20
2023-01-19T21:37:00.228Z,9.10
2023-01-19T21:39:29.344Z,9.10
2023-01-19T21:41:58.239Z,9.10
2023-01-19T21:44:27.044Z,9.10
2023-01-19T21:46:57.532Z,9.10
2023-01-19T21:49:26.330Z,9.10
2023-01-19T21:51:55.475Z,9.10
2023-01-19T21:54:25.077Z,9.10
2023-01-19T21:56:53.869Z,9.20
2023-01-19T21:59:22.901Z,9.20
2023-01-19T22:01:51.605Z,9.30
2023-01-19T22:04:22.369Z,9.40
2023-01-19T22:06:51.208Z,9.40
2023-01-19T22:09:19.812Z,9.40
2023-01-19T22:11:48.553Z,9.40
2023-01-19T22:14:17.157Z,9.40
2023-01-19T22:16:45.884Z,9.60
2023-01-19T22:19:14.617Z,9.60
2023-01-19T22:21:44.638Z,9.60
2023-01-19T22:24:13.709Z,9.60
2023-01-19T22:26:42.337Z,9.60
2023-01-19T22:29:12.156Z,9.60
2023-01-19T22:31:41.171Z,9.60
2023-01-19T22:34:10.958Z,9.60
2023-01-19T22:36:39.948Z,9.60
2023-01-19T22:39:11.390Z,9.60
2023-01-19T22:41:43.215Z,9.60
2023-01-19T22:44:14.385Z,9.50
2023-01-19T22:46:43.666Z,9.60
2023-01-19T22:49:14.954Z,9.60
2023-01-19T22:51:44.038Z,9.60
2023-01-19T22:54:14.442Z,9.60
2023-01-19T22:56:43.805Z,9.60
2023-01-19T22:59:12.618Z,9.60
2023-01-19T23:01:43.292Z,9.60
2023-01-19T23:04:14.557Z,9.60
2023-01-19T23:06:43.994Z,9.60
2023-01-19T23:09:15.517Z,9.60
2023-01-19T23:11:48.593Z,9.60
2023-01-19T23:14:19.389Z,9.60
2023-01-19T23:16:48.421Z,9.70
2023-01-19T23:19:18.298Z,9.70
2023-01-19T23:21:47.418Z,9.70
2023-01-19T23:24:17.527Z,9.60
2023-01-19T23:26:46.135Z,9.70
2023-01-19T23:29:18.139Z,9.70
2023-01-19T23:31:48.552Z,9.80
2023-01-19T23:34:17.616Z,9.90
2023-01-19T23:36:46.633Z,9.90
2023-01-19T23:39:18.142Z,9.90
2023-01-19T23:41:47.071Z,9.80
2023-01-19T23:44:15.991Z,9.80
2023-01-19T23:46:45.164Z,9.70
2023-01-19T23:49:13.810Z,9.60
2023-01-19T23:51:42.907Z,9.50
2023-01-19T23:54:12.406Z,9.40
2023-01-19T23:56:43.451Z,9.50
2023-01-19T23:59:13.662Z,9.60
